Benson Mines, New York
Current Conditions -  °F | °C
As of 6:58 AM on Saturday 25 Oct 2014 (Local Time) from KGTB Reporting Station
Broken Clouds Broken Clouds  
Wind Chill: 42°   Ceiling: 5500
Heat Index: 45°   Visibility: 10mi
Dew Point: 42°   Wind: 6mph
Humidity: 89%   Direction: 230°SW
Pressure: 29.8"   Gusts: NA
Location:  44.1538°N, 74.996°W
Report Text: KGTB 251058Z AUTO 23005KT 10SM FEW042 BKN055 07/06 A2980 RMK AO2 SLP094 T00720055
Loading
Personal Weather Stations






























Interactive Weather Map
Tropical Storm Tracking
New forecast layout! Learn more

10-Day Weather Forecast

Advertisements
Track Severe Weather on mobile